РУС

ENG

 
  Pireps - S7
 

Рейс SBI2079

  • Выполнял: Dmitry Schcurov
  • Аэропорт отправления: Domodedovo Airport (UUDD)
  • Аэропорт назначения: Pashkovskiy Krasnodar Intl. (URKK)
  • Тип ВС: E170 (VQ-BYA)
  • Время полёта: 01.58
  • Дата полёта: 06.06.2020
  • Маршрут: FV R11 TS R808 KANON B145 MIMRA A100 AMEPU W70 TEMGI
  • Статус: Одобрен

Детали полёта
Gross Revenue:
(64 load / $ 160.00 per unit
$ 10, 240.00
Fuel Cost:
(3126 fuel used @ 5.1 / unit)
$ 15, 942.60


Дополнительная информация о полёте:

Лог

Aircraft Used in flight is Embraer 170 Air Canada
22:30 Boarding
22:30 Navigation Lights ON at 600 AGL
22:30 Brakes are On
22:30 Beacon Lights ON at 600 AGL
22:31 Brakes are Released
22:32 Engine 1 Started
22:32 Engine 2 Started
22:33 Brakes are On
22:33Flaps 1 Selected at 600ft and 0kts
22:33Flaps 2 Selected at 600ft and 0kts
22:33Flaps 1 Selected at 600ft and 1kts
22:35 Taxi Lights ON at 600 AGL
22:35 Brakes are Released
22:41 Taxi Lights OFF at 600 AGL
22:41 Landing Lights ON at 600 AGL
22:41 Strobe Lights ON at 600 AGL
22:43 You Took off @ 157 Knots and Flaps at Position 1
Departure Weather
UUDD 051900Z 22002MPS 9999 FEW010 11/09 Q1010 R14R/290042 NOSIG
22:43 Landing Gear Up @ 173 Knots and 980 Feet
22:44Flaps Retracted at 3800ft and 214kts
22:45 Landing Lights OFF at 7110 AGL
22:59 TOC Reached
00:09 Landing Lights ON at 8680 AGL
00:13Flaps 1 Selected at 3870ft and 189kts
00:14Flaps 2 Selected at 2980ft and 167kts
00:14Flaps 3 Selected at 2370ft and 155kts
00:15 Landing Gear Down @ 154 Knots and 2330 Feet
00:15Flaps 4 Selected at 2180ft and 147kts
00:15Flaps 6 Selected at 2030ft and 151kts
00:18 You Landed @ 121 Knots and with -400 Vertical Speed
Arrival Weather
URKK 051900Z VRB01MPS CAVOK 18/14 Q1019 R23L/CLRD70 NOSIG RMK QFE760
00:19 Taxi Lights ON at 130 AGL
00:19 Landing Lights OFF at 130 AGL
00:19 Strobe Lights OFF at 130 AGL
00:20Flaps Retracted at 130ft and 8kts
00:27 Brakes are On
00:27 Taxi Lights OFF at 130 AGL
00:27 Engine 1 Stoped
00:27 Engine 2 Stoped
00:27 Beacon Lights OFF at 130 AGL
Pirep logged with S7 Tracking 1.0.0.14



Общая оценка полета : 100%




Route Map



 
 
   
 
Новости

03.09.2020 - Полеты в MFS 2020

Спешим сообщить вам, что теперь наш S7 Pad поддерживается для полетов в новом симуляторе MFS 2020. В разделе Загрузки вы найдете FSUIPC7.rar
Инструкция для запуска прилагается!

   
 
Авторизация






Регистрация

Восстановить пароль?

Мы в соц. сетях

      



   
 





   
 


   
 


Яндекс.Метрика

www.va-s7.ru 2011-2020
Все права защищены.



Минуточку внимания!
Сайт va-s7.ru не является коммерческим проектом. Мы не имеем отношения к торговым маркам "S7" и "Globus" и их представителям.
Эмблемы на сайте являются собственностью соответствующих компаний.

аэронавигационная метеорологическая и любая другая информация с данного ресурса ни в коем случае не должна использоваться для реальных полетов